Time;durP1;ratioP1;P1;durP2;ratioP2;P2;SDS_P1;SDS_P2;PMS_P1;PMS_P2;Temp;Humidity;BMP_temperature;BMP_pressure;BME280_temperature;BME280_humidity;BME280_pressure;Samples;Min_cycle;Max_cycle;Signal;HPM_P1;HPM_P2
2023/01/08 00:02:23;;;;;;;2.28;2.03;;;;;;;7.79;100.00;99655.75;6162068;28;20181;-86
2023/01/08 00:05:25;;;;;;;2.40;2.13;;;;;;;7.79;100.00;99635.13;6148528;28;20047;-87
2023/01/08 00:08:28;;;;;;;3.50;2.13;;;;;;;7.88;100.00;99624.09;6188288;28;20070;-86
2023/01/08 00:11:29;;;;;;;3.40;2.33;;;;;;;7.91;100.00;99611.75;6185615;28;20445;-87
2023/01/08 00:14:31;;;;;;;3.72;2.40;;;;;;;7.93;100.00;99591.03;6187444;28;20074;-87
2023/01/08 00:17:33;;;;;;;3.15;2.55;;;;;;;7.93;100.00;99586.69;6162836;28;20038;-87
2023/01/08 00:20:34;;;;;;;3.47;2.20;;;;;;;8.04;100.00;99572.09;6187512;28;20049;-87
2023/01/08 00:23:36;;;;;;;3.45;2.35;;;;;;;8.04;100.00;99562.59;6186469;28;20035;-87
2023/01/08 00:26:38;;;;;;;3.63;2.50;;;;;;;8.07;100.00;99551.19;6184423;28;20085;-87
2023/01/08 00:29:42;;;;;;;4.13;2.67;;;;;;;8.13;100.00;99564.41;6187633;28;20044;-87
2023/01/08 00:32:46;;;;;;;5.68;2.70;;;;;;;8.10;100.00;99576.72;6181401;28;20042;-87
2023/01/08 00:35:48;;;;;;;2.80;2.33;;;;;;;8.04;100.00;99580.63;6183208;28;20050;-87
2023/01/08 00:38:50;;;;;;;4.30;3.10;;;;;;;7.98;100.00;99566.50;6181750;28;20073;-87
2023/01/08 00:41:51;;;;;;;3.60;2.63;;;;;;;8.07;100.00;99567.47;6187117;28;20511;-87
2023/01/08 00:44:53;;;;;;;5.22;2.80;;;;;;;8.08;100.00;99558.00;6184465;28;20050;-87
2023/01/08 00:47:55;;;;;;;3.30;2.80;;;;;;;7.99;100.00;99564.72;6185696;28;20461;-87
2023/01/08 00:50:56;;;;;;;3.28;2.70;;;;;;;7.85;100.00;99559.91;6187615;28;20038;-87
2023/01/08 00:53:58;;;;;;;3.47;2.88;;;;;;;7.82;100.00;99579.00;6186757;28;20042;-87
2023/01/08 00:57:00;;;;;;;4.93;2.70;;;;;;;7.82;100.00;99594.47;6187377;28;20510;-87
2023/01/08 01:00:03;;;;;;;3.92;2.72;;;;;;;7.76;100.00;99610.44;6185989;28;20043;-87
2023/01/08 01:03:05;;;;;;;3.75;2.72;;;;;;;7.83;100.00;99596.13;6172232;28;20042;-87
2023/01/08 01:06:09;;;;;;;3.55;2.58;;;;;;;7.77;100.00;99597.41;6183025;28;20035;-86
2023/01/08 01:09:10;;;;;;;3.58;2.72;;;;;;;7.81;100.00;99597.19;6168060;28;20042;-86
2023/01/08 01:12:12;;;;;;;3.85;2.60;;;;;;;7.75;100.00;99589.03;6185927;28;20046;-86
2023/01/08 01:15:16;;;;;;;3.60;2.67;;;;;;;7.71;100.00;99600.50;6181768;28;20203;-86
2023/01/08 01:18:18;;;;;;;3.60;2.50;;;;;;;7.66;100.00;99589.78;6179453;28;20134;-86
2023/01/08 01:21:22;;;;;;;4.45;2.97;;;;;;;7.67;100.00;99595.72;6183966;28;20045;-87
2023/01/08 01:24:24;;;;;;;4.80;2.67;;;;;;;7.66;100.00;99600.06;6168489;28;20085;-87
2023/01/08 01:27:26;;;;;;;3.22;2.47;;;;;;;7.63;100.00;99595.19;6168245;28;20042;-87
2023/01/08 01:30:28;;;;;;;3.05;2.38;;;;;;;7.61;100.00;99586.75;6183244;28;20051;-87
2023/01/08 01:33:29;;;;;;;3.05;2.42;;;;;;;7.63;100.00;99581.50;6186101;28;20034;-87
2023/01/08 01:36:31;;;;;;;4.50;2.75;;;;;;;7.62;100.00;99590.94;6186159;28;20054;-87
2023/01/08 01:39:33;;;;;;;2.88;2.58;;;;;;;7.68;100.00;99582.75;6172474;28;20073;-87
2023/01/08 01:42:41;;;;;;;3.10;2.80;;;;;;;7.67;100.00;99585.44;6185121;28;20519;-87
2023/01/08 01:45:42;;;;;;;4.55;3.22;;;;;;;7.72;100.00;99586.69;6185256;28;20046;-87
2023/01/08 01:48:50;;;;;;;3.17;2.70;;;;;;;7.74;100.00;99594.28;6187667;28;20525;-87
2023/01/08 01:51:55;;;;;;;3.35;2.70;;;;;;;7.72;100.00;99585.88;6167095;28;20512;-87
2023/01/08 01:54:59;;;;;;;5.88;3.10;;;;;;;7.67;100.00;99590.56;6186341;28;20046;-87
2023/01/08 01:58:22;;;;;;;3.78;2.85;;;;;;;7.73;100.00;99590.09;6185642;28;20057;-86
2023/01/08 02:01:24;;;;;;;3.03;2.70;;;;;;;7.78;100.00;99587.94;6174466;28;20057;-87
2023/01/08 02:04:26;;;;;;;4.85;3.00;;;;;;;7.80;100.00;99580.91;6164764;28;20646;-87
2023/01/08 02:07:42;;;;;;;4.05;3.00;;;;;;;7.84;100.00;99577.13;6167147;28;20043;-87
2023/01/08 02:11:01;;;;;;;5.57;3.40;;;;;;;7.85;100.00;99567.63;6167992;28;20062;-87
2023/01/08 02:14:15;;;;;;;4.18;2.95;;;;;;;7.87;100.00;99570.91;6183595;28;20046;-87
2023/01/08 02:17:25;;;;;;;4.97;2.95;;;;;;;7.93;100.00;99566.06;6163614;28;20103;-87
2023/01/08 02:20:39;;;;;;;4.32;3.10;;;;;;;7.96;100.00;99567.56;6184579;28;20416;-87
2023/01/08 02:23:50;;;;;;;4.15;2.60;;;;;;;8.05;100.00;99574.53;6183765;28;20070;-87
2023/01/08 02:26:54;;;;;;;3.92;2.85;;;;;;;8.10;100.00;99580.13;6183810;28;20077;-87
2023/01/08 02:29:57;;;;;;;3.40;2.67;;;;;;;8.10;100.00;99584.44;6182628;28;20631;-87
2023/01/08 02:32:58;;;;;;;4.20;3.13;;;;;;;8.11;100.00;99594.63;6183682;28;20928;-87
2023/01/08 02:36:14;;;;;;;3.85;2.92;;;;;;;8.13;100.00;99584.19;6183065;28;20445;-87
2023/01/08 02:39:46;;;;;;;3.10;2.53;;;;;;;8.13;100.00;99587.59;6182162;28;20083;-87
2023/01/08 02:43:06;;;;;;;3.17;2.72;;;;;;;8.13;100.00;99579.84;6179208;28;20073;-87
2023/01/08 02:46:13;;;;;;;3.50;2.65;;;;;;;8.16;100.00;99576.22;6183019;28;20072;-86
2023/01/08 02:49:19;;;;;;;3.85;2.80;;;;;;;8.22;100.00;99573.09;6183228;28;20061;-87
2023/01/08 02:52:25;;;;;;;3.75;2.60;;;;;;;8.22;100.00;99570.53;6179815;28;20042;-87
2023/01/08 02:55:28;;;;;;;3.50;2.55;;;;;;;8.22;100.00;99574.88;6184383;28;20424;-87
2023/01/08 02:58:33;;;;;;;3.95;2.85;;;;;;;8.24;100.00;99576.38;6181086;28;20050;-86
2023/01/08 03:01:35;;;;;;;3.13;2.83;;;;;;;8.24;100.00;99570.41;6181660;28;20526;-87
2023/01/08 03:04:45;;;;;;;3.35;2.53;;;;;;;8.21;100.00;99566.31;6166532;28;20046;-86
2023/01/08 03:07:48;;;;;;;3.42;2.70;;;;;;;8.23;100.00;99572.16;6182186;28;20423;-87
2023/01/08 03:11:03;;;;;;;4.25;2.80;;;;;;;8.22;100.00;99570.53;6183518;28;20157;-86
2023/01/08 03:14:46;;;;;;;4.30;2.75;;;;;;;8.24;100.00;99566.06;6172393;28;20046;-87
2023/01/08 03:17:53;;;;;;;3.53;2.50;;;;;;;8.26;100.00;99574.47;6085568;29;20107;-87
2023/01/08 03:20:57;;;;;;;3.72;2.80;;;;;;;8.28;100.00;99571.78;6084120;29;20070;-87
2023/01/08 03:24:00;;;;;;;2.85;2.25;;;;;;;8.34;100.00;99569.47;6084057;29;20103;-87
2023/01/08 03:27:06;;;;;;;3.53;2.67;;;;;;;8.33;100.00;99572.22;6083564;29;20171;-87
2023/01/08 03:30:10;;;;;;;4.03;3.05;;;;;;;8.37;100.00;99563.25;6085052;29;20048;-87
2023/01/08 03:33:13;;;;;;;4.43;2.97;;;;;;;8.40;100.00;99555.31;6084311;29;20064;-87
2023/01/08 03:36:20;;;;;;;3.28;2.72;;;;;;;8.36;100.00;99549.53;6073821;29;20179;-87
2023/01/08 03:39:29;;;;;;;3.88;2.97;;;;;;;8.34;100.00;99545.47;6087810;29;20075;-87
2023/01/08 03:42:31;;;;;;;3.78;3.00;;;;;;;8.30;100.00;99547.50;6088625;29;20052;-86
2023/01/08 03:45:37;;;;;;;4.80;2.95;;;;;;;8.27;100.00;99545.16;6089497;29;20363;-87
2023/01/08 03:48:40;;;;;;;4.45;2.75;;;;;;;8.25;100.00;99539.34;6089213;29;20044;-87
2023/01/08 03:51:43;;;;;;;3.85;3.00;;;;;;;8.23;100.00;99532.69;6092861;28;20063;-87
2023/01/08 03:54:45;;;;;;;4.18;3.33;;;;;;;8.22;100.00;99526.69;6181748;28;20046;-87
2023/01/08 03:57:50;;;;;;;3.25;2.95;;;;;;;8.18;100.00;99520.19;6165126;28;20413;-87
2023/01/08 04:00:52;;;;;;;4.45;2.80;;;;;;;8.16;100.00;99524.66;6183653;28;20050;-87
2023/01/08 04:03:54;;;;;;;3.72;2.72;;;;;;;8.11;100.00;99516.50;6181190;28;20063;-87
2023/01/08 04:06:55;;;;;;;5.30;3.08;;;;;;;8.04;100.00;99505.88;6176551;28;20489;-87
2023/01/08 04:09:57;;;;;;;4.80;2.72;;;;;;;8.07;100.00;99513.34;6168884;28;20049;-87
2023/01/08 04:12:59;;;;;;;3.13;2.78;;;;;;;8.04;100.00;99523.13;6182860;28;20042;-87
2023/01/08 04:16:01;;;;;;;4.20;2.55;;;;;;;8.03;100.00;99511.19;6187546;28;20046;-87
2023/01/08 04:19:02;;;;;;;3.88;2.88;;;;;;;8.03;100.00;99508.59;6163023;28;20458;-87
2023/01/08 04:22:04;;;;;;;4.50;3.00;;;;;;;8.01;100.00;99505.34;6182072;28;20042;-87
2023/01/08 04:25:06;;;;;;;3.78;2.70;;;;;;;7.98;100.00;99509.00;6180276;28;20053;-87
2023/01/08 04:28:08;;;;;;;3.35;2.97;;;;;;;7.98;100.00;99499.50;6184635;28;20039;-87
2023/01/08 04:31:10;;;;;;;3.75;2.55;;;;;;;7.96;100.00;99498.81;6181388;28;20038;-87
2023/01/08 04:34:12;;;;;;;5.00;2.47;;;;;;;8.01;100.00;99495.03;6167379;28;20042;-87
2023/01/08 04:37:14;;;;;;;4.90;2.70;;;;;;;7.98;100.00;99490.97;6187135;28;20104;-87
2023/01/08 04:40:15;;;;;;;3.40;2.65;;;;;;;7.98;100.00;99485.81;6186147;28;20145;-87
2023/01/08 04:43:17;;;;;;;3.95;2.17;;;;;;;7.97;100.00;99486.72;6185255;28;20050;-87
2023/01/08 04:46:19;;;;;;;4.60;2.50;;;;;;;8.03;100.00;99478.50;6185282;28;20089;-87
2023/01/08 04:49:21;;;;;;;3.28;2.20;;;;;;;8.05;100.00;99475.75;6186226;28;20073;-87
2023/01/08 04:52:22;;;;;;;2.60;2.30;;;;;;;8.05;100.00;99479.19;6170497;28;20078;-87
2023/01/08 04:55:24;;;;;;;2.92;2.13;;;;;;;8.04;100.00;99469.81;6186833;28;20477;-87
2023/01/08 04:58:26;;;;;;;4.82;2.80;;;;;;;8.05;100.00;99468.88;6168334;28;20412;-87
2023/01/08 05:01:28;;;;;;;4.82;2.42;;;;;;;8.05;100.00;99475.75;6185938;28;20054;-87
2023/01/08 05:04:30;;;;;;;4.07;2.50;;;;;;;8.05;100.00;99471.44;6185239;28;20121;-86
2023/01/08 05:07:32;;;;;;;3.47;2.42;;;;;;;8.02;100.00;99470.88;6185414;28;20125;-87
2023/01/08 05:10:33;;;;;;;3.30;2.50;;;;;;;7.97;100.00;99471.28;6185105;28;20050;-87
2023/01/08 05:13:35;;;;;;;3.72;2.20;;;;;;;7.94;100.00;99474.91;6187368;28;20042;-87
2023/01/08 05:16:37;;;;;;;4.07;2.60;;;;;;;7.91;100.00;99477.75;6184713;28;20038;-87
2023/01/08 05:19:39;;;;;;;4.03;2.53;;;;;;;7.89;100.00;99477.06;6168142;28;20623;-87
2023/01/08 05:22:40;;;;;;;3.97;2.40;;;;;;;7.85;100.00;99475.72;6184029;28;20198;-87
2023/01/08 05:25:42;;;;;;;3.70;2.60;;;;;;;7.83;100.00;99482.75;6185569;28;20038;-86
2023/01/08 05:28:45;;;;;;;3.63;2.70;;;;;;;7.79;100.00;99483.16;6185391;28;20119;-86
2023/01/08 05:31:46;;;;;;;3.63;2.60;;;;;;;7.73;100.00;99482.72;6166316;28;20137;-86
2023/01/08 05:34:49;;;;;;;2.75;2.50;;;;;;;7.72;100.00;99485.41;6184181;28;20073;-86
2023/01/08 05:37:52;;;;;;;4.80;2.80;;;;;;;7.67;100.00;99477.25;6168466;28;20042;-86
2023/01/08 05:40:53;;;;;;;4.72;2.80;;;;;;;7.64;100.00;99487.81;6184987;28;20483;-85
2023/01/08 05:43:55;;;;;;;3.72;2.63;;;;;;;7.62;100.00;99490.50;6184569;28;20321;-86
2023/01/08 05:46:57;;;;;;;4.63;2.95;;;;;;;7.60;100.00;99487.25;6186332;28;20077;-85
2023/01/08 05:49:59;;;;;;;4.63;2.70;;;;;;;7.61;100.00;99488.06;6183943;28;20046;-86
2023/01/08 05:53:01;;;;;;;5.13;2.88;;;;;;;7.59;100.00;99492.53;6165233;28;20038;-86
2023/01/08 05:56:06;;;;;;;2.90;2.50;;;;;;;7.59;100.00;99493.34;6167557;28;20124;-85
2023/01/08 05:59:11;;;;;;;4.50;2.58;;;;;;;7.59;100.00;99505.41;6156872;28;20070;-85
2023/01/08 06:02:12;;;;;;;4.53;2.78;;;;;;;7.62;100.00;99500.00;6167865;28;20180;-85
2023/01/08 06:05:14;;;;;;;3.88;2.35;;;;;;;7.62;100.00;99497.44;6180967;28;20054;-85
2023/01/08 06:08:16;;;;;;;4.63;2.72;;;;;;;7.63;100.00;99507.63;6183713;28;20054;-85
2023/01/08 06:11:18;;;;;;;5.13;2.58;;;;;;;7.63;100.00;99499.88;6167247;28;20054;-85
2023/01/08 06:14:19;;;;;;;3.40;2.85;;;;;;;7.62;100.00;99492.28;6151373;28;20049;-86
2023/01/08 06:17:21;;;;;;;3.58;2.35;;;;;;;7.65;100.00;99489.44;6173936;28;20057;-86
2023/01/08 06:20:23;;;;;;;5.30;2.70;;;;;;;7.66;100.00;99491.09;6182779;28;20039;-85
2023/01/08 06:23:25;;;;;;;4.60;2.80;;;;;;;7.66;100.00;99493.66;6184803;28;20039;-85
2023/01/08 06:26:26;;;;;;;3.83;2.65;;;;;;;7.66;100.00;99491.91;6165094;28;20057;-85
2023/01/08 06:29:28;;;;;;;3.80;3.05;;;;;;;7.64;100.00;99493.78;6159683;28;20792;-85
2023/01/08 06:32:30;;;;;;;7.90;2.78;;;;;;;7.62;100.00;99489.69;6179980;28;20243;-85
2023/01/08 06:35:31;;;;;;;6.82;2.90;;;;;;;7.62;100.00;99494.84;6163594;28;20073;-85
2023/01/08 06:38:36;;;;;;;3.70;2.67;;;;;;;7.60;100.00;99499.31;6165937;28;20046;-85
2023/01/08 06:41:37;;;;;;;2.47;2.17;;;;;;;7.58;100.00;99506.34;6179713;28;20046;-85
2023/01/08 06:44:39;;;;;;;3.70;2.58;;;;;;;7.58;100.00;99499.44;6168043;28;20034;-85
2023/01/08 06:47:41;;;;;;;3.22;2.38;;;;;;;7.62;100.00;99494.84;6184035;28;20038;-85
2023/01/08 06:50:42;;;;;;;2.88;2.53;;;;;;;7.58;100.00;99499.44;6173177;28;20050;-85
2023/01/08 06:53:47;;;;;;;3.83;2.53;;;;;;;7.55;100.00;99503.09;6182998;28;20134;-85
2023/01/08 06:56:49;;;;;;;4.57;2.80;;;;;;;7.52;100.00;99510.25;6183924;28;20149;-85
2023/01/08 06:59:54;;;;;;;3.35;2.78;;;;;;;7.51;100.00;99508.63;6183864;28;20169;-85
2023/01/08 07:02:56;;;;;;;4.95;2.47;;;;;;;7.57;100.00;99515.03;6179656;28;20139;-85
2023/01/08 07:06:01;;;;;;;3.67;2.20;;;;;;;7.57;100.00;99520.16;6168096;28;20042;-85
2023/01/08 07:09:03;;;;;;;3.53;2.30;;;;;;;7.56;100.00;99521.94;6182895;28;20396;-85
2023/01/08 07:12:05;;;;;;;3.15;2.30;;;;;;;7.55;100.00;99526.28;6184486;28;20401;-86
2023/01/08 07:15:07;;;;;;;2.80;2.30;;;;;;;7.55;100.00;99531.44;6155420;28;20057;-86
2023/01/08 07:18:11;;;;;;;3.17;2.40;;;;;;;7.55;100.00;99535.75;6178337;28;20039;-86
2023/01/08 07:21:14;;;;;;;3.80;2.33;;;;;;;7.55;100.00;99539.16;6171984;28;20543;-85
2023/01/08 07:24:15;;;;;;;3.35;2.42;;;;;;;7.60;100.00;99537.94;6185231;28;20046;-85
2023/01/08 07:27:18;;;;;;;2.97;2.38;;;;;;;7.57;100.00;99533.03;6170804;28;20077;-86
2023/01/08 07:30:19;;;;;;;2.92;2.38;;;;;;;7.57;100.00;99541.59;6189566;28;20089;-86
2023/01/08 07:33:31;;;;;;;3.03;2.50;;;;;;;7.58;100.00;99547.53;6156995;28;20046;-86
2023/01/08 07:36:33;;;;;;;3.40;2.30;;;;;;;7.55;100.00;99551.19;6185163;28;20042;-87
2023/01/08 07:39:35;;;;;;;2.83;2.33;;;;;;;7.55;100.00;99557.19;6167876;28;20436;-86
2023/01/08 07:42:37;;;;;;;3.67;2.70;;;;;;;7.55;100.00;99567.47;6188624;28;20455;-87
2023/01/08 07:45:39;;;;;;;6.20;2.75;;;;;;;7.57;100.00;99569.91;6167666;28;20468;-87
2023/01/08 07:48:41;;;;;;;3.75;2.60;;;;;;;7.60;100.00;99563.69;6178514;28;20042;-87
2023/01/08 07:51:43;;;;;;;3.25;2.50;;;;;;;7.67;100.00;99562.25;6180532;28;20480;-87
2023/01/08 07:54:45;;;;;;;2.75;2.47;;;;;;;7.64;100.00;99562.50;6170446;28;20047;-88
2023/01/08 07:57:47;;;;;;;3.50;2.70;;;;;;;7.66;100.00;99560.63;6173193;28;20416;-88
2023/01/08 08:00:49;;;;;;;3.72;2.75;;;;;;;7.65;100.00;99561.56;6173184;28;20624;-88
2023/01/08 08:03:51;;;;;;;2.88;2.47;;;;;;;7.67;100.00;99554.53;6174827;28;20039;-88
2023/01/08 08:06:54;;;;;;;4.72;3.30;;;;;;;7.67;100.00;99554.53;6163312;28;20042;-88
2023/01/08 08:09:55;;;;;;;5.03;3.55;;;;;;;7.71;100.00;99554.16;6159393;28;20838;-88
2023/01/08 08:12:57;;;;;;;4.90;3.17;;;;;;;7.66;100.00;99556.28;6178755;28;20354;-88
2023/01/08 08:16:04;;;;;;;4.53;3.15;;;;;;;7.67;100.00;99554.53;6156367;28;20046;-88
2023/01/08 08:19:05;;;;;;;3.80;3.15;;;;;;;7.64;100.00;99545.28;6175531;28;20053;-88
2023/01/08 08:22:07;;;;;;;2.65;2.33;;;;;;;7.66;100.00;99552.91;6173217;28;20072;-88
2023/01/08 08:25:10;;;;;;;3.10;2.45;;;;;;;7.66;100.00;99565.78;6179074;28;20413;-88
2023/01/08 08:28:11;;;;;;;3.28;2.40;;;;;;;7.65;100.00;99553.81;6165169;28;20047;-88
2023/01/08 08:31:14;;;;;;;3.55;2.60;;;;;;;7.72;100.00;99562.69;6181448;28;20413;-88
2023/01/08 08:34:16;;;;;;;2.70;2.50;;;;;;;7.70;100.00;99557.69;6180237;28;20043;-88
2023/01/08 08:37:20;;;;;;;2.75;2.15;;;;;;;7.75;100.00;99554.69;6159404;28;20359;-88
2023/01/08 08:40:23;;;;;;;4.93;2.83;;;;;;;7.79;100.00;99539.81;6161206;28;20042;-88
2023/01/08 08:43:25;;;;;;;2.75;2.40;;;;;;;7.80;100.00;99544.84;6163034;28;20054;-88
2023/01/08 08:46:28;;;;;;;4.38;2.40;;;;;;;7.84;100.00;99535.91;6175329;28;20160;-88
2023/01/08 08:49:30;;;;;;;3.17;2.35;;;;;;;7.87;100.00;99534.84;6173566;28;20226;-88
2023/01/08 08:52:36;;;;;;;2.25;1.90;;;;;;;7.87;100.00;99534.84;6173104;28;20033;-89
2023/01/08 08:55:38;;;;;;;3.30;1.90;;;;;;;7.89;100.00;99532.94;6173830;28;20054;-88
2023/01/08 08:58:40;;;;;;;2.00;1.80;;;;;;;7.94;100.00;99529.03;6166910;28;20035;-86
2023/01/08 09:01:42;;;;;;;2.28;1.70;;;;;;;7.97;100.00;99528.78;6175094;28;20674;-86
2023/01/08 09:04:44;;;;;;;1.92;1.60;;;;;;;8.02;100.00;99519.84;6168293;28;20142;-86
2023/01/08 09:07:46;;;;;;;2.00;1.60;;;;;;;8.09;100.00;99514.03;6155733;28;20049;-86
2023/01/08 09:10:48;;;;;;;2.40;1.88;;;;;;;8.17;100.00;99509.06;6174447;28;20592;-86
2023/01/08 09:13:50;;;;;;;2.53;1.80;;;;;;;8.27;100.00;99509.06;6172484;28;20754;-86
2023/01/08 09:16:51;;;;;;;3.90;1.80;;;;;;;8.42;100.00;99506.97;6167767;28;20145;-86
2023/01/08 09:19:54;;;;;;;2.15;1.70;;;;;;;8.57;100.00;99497.94;6167290;28;20043;-86
2023/01/08 09:23:02;;;;;;;2.50;1.85;;;;;;;8.61;100.00;99491.53;6169409;28;20058;-86
2023/01/08 09:26:05;;;;;;;2.13;1.67;;;;;;;8.65;100.00;99494.69;6174675;28;20030;-86
2023/01/08 09:29:07;;;;;;;2.40;1.90;;;;;;;8.57;100.00;99477.28;6173197;28;20084;-85
2023/01/08 09:32:09;;;;;;;1.48;1.38;;;;;;;8.50;100.00;99473.63;6172005;28;20035;-86
2023/01/08 09:35:11;;;;;;;2.80;2.00;;;;;;;8.45;100.00;99477.53;6167919;28;20034;-86
2023/01/08 09:38:13;;;;;;;3.05;2.17;;;;;;;8.53;100.00;99481.06;6170015;28;20039;-86
2023/01/08 09:41:32;;;;;;;2.30;1.77;;;;;;;8.60;100.00;99471.84;6170786;28;20093;-86
2023/01/08 09:44:45;;;;;;;1.67;1.58;;;;;;;8.73;100.00;99479.31;6153675;28;20583;-86
2023/01/08 09:47:47;;;;;;;2.55;1.45;;;;;;;8.86;100.00;99468.72;6159578;28;20042;-86
2023/01/08 09:50:50;;;;;;;1.85;1.58;;;;;;;8.95;100.00;99464.53;6173685;28;20547;-86
2023/01/08 09:53:57;;;;;;;1.92;1.48;;;;;;;8.97;100.00;99452.31;6175044;28;20039;-86
2023/01/08 09:56:59;;;;;;;2.72;1.55;;;;;;;8.97;100.00;99447.16;6171401;28;20110;-86
2023/01/08 10:00:02;;;;;;;1.10;1.00;;;;;;;8.97;100.00;99442.78;6172772;28;20046;-86
2023/01/08 10:03:11;;;;;;;1.98;1.48;;;;;;;8.99;100.00;99435.75;6177828;28;20046;-86
2023/01/08 10:06:14;;;;;;;2.20;1.42;;;;;;;9.11;100.00;99444.13;6169175;28;20050;-86
2023/01/08 10:09:22;;;;;;;2.65;1.20;;;;;;;9.24;100.00;99425.75;6174208;28;20070;-86
2023/01/08 10:12:33;;;;;;;1.50;1.10;;;;;;;9.41;100.00;99424.22;6173539;28;20038;-86
2023/01/08 10:15:35;;;;;;;1.10;1.00;;;;;;;9.55;100.00;99415.19;6171708;28;20054;-86
2023/01/08 10:18:39;;;;;;;3.63;1.35;;;;;;;9.53;100.00;99417.91;6175238;28;20125;-86
2023/01/08 10:21:42;;;;;;;1.80;1.20;;;;;;;9.51;100.00;99411.25;6172172;28;20049;-86
2023/01/08 10:24:44;;;;;;;1.42;1.20;;;;;;;9.41;100.00;99406.13;6173838;28;20493;-85
2023/01/08 10:27:58;;;;;;;1.25;1.15;;;;;;;9.43;100.00;99396.47;6174070;28;20049;-86
2023/01/08 10:31:15;;;;;;;1.27;1.10;;;;;;;9.53;100.00;99380.94;6171894;28;20443;-86
2023/01/08 10:34:32;;;;;;;1.13;1.00;;;;;;;9.64;100.00;99389.31;6170398;28;20059;-85
2023/01/08 10:37:42;;;;;;;1.30;1.10;;;;;;;9.65;100.00;99395.31;6171246;28;20043;-85
2023/01/08 10:40:49;;;;;;;1.98;1.20;;;;;;;9.68;100.00;99400.97;6172577;28;20077;-86
2023/01/08 10:43:55;;;;;;;1.15;1.05;;;;;;;9.72;100.00;99395.56;6173171;28;20030;-86
2023/01/08 10:46:59;;;;;;;2.42;1.23;;;;;;;9.73;100.00;99382.47;6180271;28;20127;-85
2023/01/08 10:50:04;;;;;;;1.70;1.00;;;;;;;9.76;100.00;99391.72;6180692;28;20049;-86
2023/01/08 10:53:23;;;;;;;1.98;1.15;;;;;;;9.82;100.00;99391.16;6173212;28;20109;-86
2023/01/08 10:56:41;;;;;;;1.10;0.98;;;;;;;9.77;100.00;99386.41;6173760;28;20563;-86
2023/01/08 10:59:43;;;;;;;2.63;1.10;;;;;;;9.87;100.00;99376.00;6177547;28;20038;-86
2023/01/08 11:02:49;;;;;;;1.27;1.15;;;;;;;10.03;100.00;99383.13;6154896;28;20101;-86
2023/01/08 11:05:51;;;;;;;2.03;1.27;;;;;;;10.27;100.00;99373.03;6175576;28;20138;-86
2023/01/08 11:08:56;;;;;;;0.90;0.90;;;;;;;10.46;100.00;99374.69;6172427;28;20121;-86
2023/01/08 11:11:59;;;;;;;1.42;0.90;;;;;;;10.61;100.00;99371.53;6177814;28;20493;-86
2023/01/08 11:15:14;;;;;;;1.35;0.80;;;;;;;10.83;100.00;99365.91;6172352;28;20031;-86
2023/01/08 11:18:25;;;;;;;0.80;0.80;;;;;;;11.04;100.00;99359.56;6179246;28;20145;-86
2023/01/08 11:21:31;;;;;;;0.70;0.70;;;;;;;11.25;100.00;99357.41;6173286;28;20595;-86
2023/01/08 11:24:36;;;;;;;0.70;0.70;;;;;;;11.43;100.00;99349.56;6155145;28;20096;-86
2023/01/08 11:27:43;;;;;;;1.20;0.90;;;;;;;11.52;100.00;99350.41;6175311;28;20035;-86
2023/01/08 11:30:53;;;;;;;1.25;0.80;;;;;;;11.47;100.00;99337.09;6161267;28;20034;-86
2023/01/08 11:34:06;;;;;;;2.50;0.90;;;;;;;11.37;100.00;99338.03;6168646;28;20057;-86
2023/01/08 11:37:20;;;;;;;1.23;0.70;;;;;;;11.19;100.00;99337.31;6164115;28;20042;-86
2023/01/08 11:40:39;;;;;;;1.00;0.85;;;;;;;11.15;100.00;99328.22;6163293;28;20038;-86
2023/01/08 11:43:49;;;;;;;1.17;0.80;;;;;;;11.10;100.00;99327.84;6164761;28;20046;-86
2023/01/08 11:47:12;;;;;;;;;;;;;;;11.01;100.00;99318.44;6170883;28;20420;-86
2023/01/08 11:51:01;;;;;;;1.83;0.95;;;;;;;11.04;100.00;99321.53;6170949;28;19948;-86
2023/01/08 11:54:25;;;;;;;0.73;0.70;;;;;;;11.18;100.00;99314.97;6071104;29;20514;-86
2023/01/08 11:58:04;;;;;;;1.90;0.80;;;;;;;11.41;100.00;99312.63;6065714;29;20044;-86
2023/01/08 12:01:43;;;;;;;0.77;0.63;;;;;;;11.78;100.00;99314.03;6077075;29;20427;-86
2023/01/08 12:05:17;;;;;;;0.80;0.60;;;;;;;11.81;100.00;99301.56;6073404;29;20079;-86
2023/01/08 12:08:50;;;;;;;0.77;0.77;;;;;;;12.06;100.00;99286.88;6069543;29;20393;-86
2023/01/08 12:12:16;;;;;;;1.50;0.77;;;;;;;12.31;100.00;99291.25;6072290;29;20386;-86
2023/01/08 12:15:28;;;;;;;0.80;0.70;;;;;;;12.43;100.00;99282.97;6073932;29;20550;-86
2023/01/08 12:18:48;;;;;;;0.85;0.77;;;;;;;12.44;100.00;99276.00;6072548;29;20052;-85
2023/01/08 12:22:29;;;;;;;1.65;0.70;;;;;;;12.37;100.00;99275.84;6069199;29;20412;-85
2023/01/08 12:25:49;;;;;;;;;;;;;;;12.12;100.00;99262.06;6134570;28;20608;-86
2023/01/08 12:29:23;;;;;;;2.03;0.82;;;;;;;11.77;100.00;99255.38;6152193;28;19933;-86
2023/01/08 12:32:36;;;;;;;2.45;0.85;;;;;;;11.61;100.00;99258.75;6171619;28;20050;-86
2023/01/08 12:35:47;;;;;;;2.20;0.90;;;;;;;11.48;100.00;99256.63;6172051;28;20053;-86
2023/01/08 12:39:02;;;;;;;1.35;0.82;;;;;;;11.43;100.00;99259.69;6173632;28;20061;-86
2023/01/08 12:42:10;;;;;;;1.40;0.80;;;;;;;11.47;100.00;99249.81;6173542;28;20456;-86
2023/01/08 12:45:36;;;;;;;3.85;0.80;;;;;;;11.61;100.00;99243.19;6171563;28;20509;-86
2023/01/08 12:48:39;;;;;;;2.78;0.70;;;;;;;11.74;100.00;99240.13;6052473;29;20527;-85
2023/01/08 12:52:36;;;;;;;2.10;0.93;;;;;;;11.63;100.00;99243.84;6048041;29;20491;-86
2023/01/08 12:55:56;;;;;;;2.42;0.80;;;;;;;11.73;100.00;99243.72;6053659;29;20096;-85
2023/01/08 12:59:10;;;;;;;1.92;0.77;;;;;;;11.67;100.00;99227.00;6052000;29;20693;-86
2023/01/08 13:02:48;;;;;;;1.88;0.85;;;;;;;11.57;100.00;99223.75;6052011;29;20447;-86
2023/01/08 13:05:50;;;;;;;3.22;0.70;;;;;;;11.51;100.00;99211.44;6051810;29;20060;-86
2023/01/08 13:08:57;;;;;;;2.70;0.98;;;;;;;11.49;100.00;99211.59;6050276;29;20080;-86
2023/01/08 13:12:02;;;;;;;1.10;0.70;;;;;;;11.43;100.00;99210.44;6051075;29;20508;-86
2023/01/08 13:15:07;;;;;;;3.47;1.08;;;;;;;11.30;100.00;99199.72;6045753;29;20057;-86
2023/01/08 13:18:19;;;;;;;1.52;0.68;;;;;;;11.19;100.00;99205.22;6042968;29;20061;-86
2023/01/08 13:21:42;;;;;;;1.95;0.90;;;;;;;11.11;100.00;99198.22;6026848;29;20045;-86
2023/01/08 13:24:43;;;;;;;1.88;0.82;;;;;;;11.03;100.00;99189.59;6065420;29;20060;-86
2023/01/08 13:27:46;;;;;;;2.72;0.95;;;;;;;10.94;100.00;99189.59;6118859;28;20050;-85
2023/01/08 13:30:48;;;;;;;2.22;0.90;;;;;;;10.91;100.00;99182.16;6153540;28;20162;-86
2023/01/08 13:33:51;;;;;;;2.90;1.15;;;;;;;10.82;100.00;99187.44;6171801;28;20046;-86
2023/01/08 13:36:59;;;;;;;2.17;0.60;;;;;;;10.64;100.00;99178.00;6169528;28;20109;-86
2023/01/08 13:40:05;;;;;;;3.83;0.90;;;;;;;10.64;100.00;99170.22;6169008;28;20038;-86
2023/01/08 13:43:25;;;;;;;3.78;0.80;;;;;;;10.40;100.00;99164.94;6168792;28;20501;-85
2023/01/08 13:46:28;;;;;;;4.83;1.23;;;;;;;10.09;100.00;99150.66;6179497;28;20047;-86
2023/01/08 13:49:45;;;;;;;1.45;1.10;;;;;;;9.84;100.00;99143.72;6165170;28;20042;-85
2023/01/08 13:52:54;;;;;;;3.55;0.77;;;;;;;9.66;100.00;99139.38;6175844;28;20516;-86
2023/01/08 13:56:00;;;;;;;1.85;0.90;;;;;;;9.49;100.00;99138.44;6173683;28;20447;-86
2023/01/08 13:59:04;;;;;;;1.50;0.60;;;;;;;9.35;100.00;99146.69;6182805;28;20512;-86
2023/01/08 14:02:43;;;;;;;3.25;0.80;;;;;;;9.28;100.00;99154.19;6174837;28;20137;-85
2023/01/08 14:05:46;;;;;;;1.77;0.83;;;;;;;9.25;100.00;99151.91;6177725;28;20070;-85
2023/01/08 14:08:59;;;;;;;2.13;0.60;;;;;;;9.20;100.00;99150.75;6172994;28;20629;-85
2023/01/08 14:12:01;;;;;;;2.67;0.80;;;;;;;9.10;100.00;99143.06;6176699;28;20574;-86
2023/01/08 14:15:08;;;;;;;3.60;1.85;;;;;;;8.98;100.00;99144.22;6173592;28;20072;-86
2023/01/08 14:18:13;;;;;;;4.28;1.38;;;;;;;8.86;100.00;99150.53;6148231;28;20103;-86
2023/01/08 14:21:20;;;;;;;1.95;0.80;;;;;;;8.68;100.00;99146.13;6171733;28;20055;-86
2023/01/08 14:24:24;;;;;;;1.98;0.90;;;;;;;8.55;100.00;99159.38;6171672;28;20066;-85
2023/01/08 14:27:28;;;;;;;1.60;0.90;;;;;;;8.48;100.00;99155.72;6176557;28;20039;-86
2023/01/08 14:30:32;;;;;;;1.90;1.10;;;;;;;8.45;100.00;99150.03;6170781;28;20051;-86
2023/01/08 14:33:36;;;;;;;1.75;0.98;;;;;;;8.51;100.00;99155.44;6167045;28;20035;-85
2023/01/08 14:36:38;;;;;;;1.90;1.10;;;;;;;8.65;100.00;99153.38;6168618;28;20038;-85